EW3579 Weather Reports


Display with metric or nautical units.
time (UTC)temp
F
wind
direction
speed
MPH
gust
MPH
rain 1hr
in
rain 24hr
in
rain mn
in
humidity
%
barometer
mb
20221128153408 49 217 5.0 6.0 0.00 0.35 0.05 96 1010.1
20221128152908 49 217 6.0 6.0 0.00 0.35 0.05 96 1010.0
20221128152407 49 216 6.0 6.0 0.00 0.35 0.05 96 1010.1
20221128151908 49 224 3.0 8.0 0.00 0.35 0.05 96 1010.1
20221128151408 49 227 6.0 8.0 0.00 0.35 0.05 96 1010.0
20221128150908 49 226 3.0 8.0 0.00 0.35 0.05 96 1010.0
20221128150407 49 211 11.0 12.0 0.00 0.35 0.05 96 1010.0
20221128145907 50 217 5.0 8.0 0.00 0.35 0.05 96 1010.0
20221128145408 50 208 2.0 8.0 0.00 0.35 0.05 96 1010.0
20221128144908 50 215 7.0 10.0 0.00 0.35 0.05 97 1010.0
20221128144407 50 208 10.0 10.0 0.00 0.35 0.05 97 1010.0
20221128143908 50 204 4.0 10.0 0.00 0.35 0.05 97 1009.9
20221128143408 50 203 1.0 3.0 0.00 0.35 0.05 97 1009.9
20221128142907 49 203 0.0 6.0 0.00 0.35 0.05 97 1009.8
20221128142407 50 207 10.0 14.0 0.00 0.35 0.05 97 1009.7
20221128141907 50 192 2.0 10.0 0.00 0.35 0.05 96 1009.6
20221128141407 50 205 6.0 8.0 0.00 0.35 0.05 97 1009.6
20221128140907 50 205 1.0 3.0 0.00 0.35 0.05 96 1009.6
20221128135907 50 207 3.0 6.0 0.00 0.35 0.05 97 1009.6
20221128135407 50 215 10.0 10.0 0.00 0.35 0.05 97 1009.5
20221128134908 50 215 3.0 6.0 0.00 0.35 0.05 97 1009.5
20221128134407 50 215 0.0 2.0 0.00 0.35 0.05 97 1009.5
20221128133907 50 215 1.0 8.0 0.00 0.35 0.05 97 1009.4
20221128133407 50 215 2.0 3.0 0.00 0.35 0.05 97 1009.4
20221128132908 50 215 3.0 6.0 0.00 0.35 0.05 97 1009.3
20221128132407 50 215 0.0 3.0 0.00 0.35 0.05 98 1009.3
20221128131408 49 212 6.0 10.0 0.00 0.35 0.05 97 1009.4
20221128130407 49 205 6.0 12.0 0.00 0.35 0.05 97 1009.3
20221128125908 49 201 12.0 12.0 0.00 0.35 0.05 97 1009.3
20221128125407 49 217 5.0 8.0 0.00 0.35 0.05 98 1009.3
20221128124907 49 211 4.0 10.0 0.00 0.35 0.05 98 1009.3
20221128123908 49 218 10.0 14.0 0.00 0.35 0.05 98 1009.4
20221128123407 49 223 7.0 12.0 0.00 0.35 0.05 98 1009.4
20221128122907 49 216 1.0 3.0 0.00 0.35 0.05 98 1009.3
20221128122407 49 204 6.0 8.0 0.00 0.35 0.05 98 1009.2
20221128121908 49 207 7.0 12.0 0.00 0.35 0.05 98 1009.2
20221128121407 49 211 2.0 6.0 0.00 0.35 0.05 98 1009.2
20221128120907 49 211 1.0 6.0 0.00 0.35 0.05 98 1009.1
20221128115908 49 221 9.0 10.0 0.00 0.35 0.05 98 1009.0
20221128115407 49 225 9.0 12.0 0.00 0.35 0.05 98 1009.0
20221128114908 49 252 5.0 8.0 0.00 0.35 0.05 98 1009.0
20221128113907 49 337 17.0 16.0 0.00 0.35 0.05 99 1009.2
20221128113408 49 357 14.0 16.0 0.00 0.35 0.05 99 1009.1
20221128112908 49 0 6.0 8.0 0.00 0.35 0.05 98 1009.0
20221128112407 49 357 10.0 10.0 0.00 0.35 0.05 98 1009.1
20221128111908 49 0 13.0 16.0 0.00 0.35 0.05 98 1009.1
20221128111407 49 0 12.0 16.0 0.00 0.35 0.05 99 1009.3
20221128110407 48 0 10.0 10.0 0.00 0.35 0.05 99 1009.2
20221128105907 48 0 9.0 16.0 0.00 0.35 0.05 98 1009.2
20221128105407 48 0 15.0 16.0 0.00 0.35 0.05 98 1009.3
20221128104907 48 0 18.0 20.0 0.00 0.35 0.05 98 1009.2
20221128104407 48 0 17.0 20.0 0.00 0.35 0.05 98 1009.2
20221128103907 48 0 16.0 20.0 0.00 0.35 0.05 98 1009.2
20221128103408 48 0 16.0 16.0 0.00 0.35 0.05 99 1009.1
20221128102907 48 0 12.0 16.0 0.00 0.35 0.05 99 1009.2
20221128102407 48 0 7.0 10.0 0.00 0.35 0.05 99 1009.1
20221128101908 48 0 13.0 12.0 0.00 0.35 0.05 99 1009.1
20221128101407 48 357 10.0 12.0 0.00 0.35 0.05 98 1009.1
20221128100908 48 211 14.0 14.0 0.00 0.35 0.05 99 1009.1
20221128100407 48 206 9.0 12.0 0.00 0.35 0.05 99 1009.0
20221128095907 48 0 13.0 20.0 0.00 0.35 0.05 98 1009.1
20221128094908 48 357 11.0 12.0 0.00 0.35 0.05 98 1008.9
20221128094408 48 0 10.0 20.0 0.00 0.35 0.05 98 1008.8
20221128093907 48 357 13.0 18.0 0.00 0.35 0.05 98 1008.8
20221128093408 48 0 13.0 22.0 0.00 0.35 0.05 99 1008.7
20221128092407 48 235 11.0 14.0 0.00 0.36 0.05 98 1008.6
20221128091907 48 211 7.0 14.0 0.00 0.36 0.05 98 1008.6
20221128091408 48 205 5.0 12.0 0.00 0.36 0.05 99 1008.7
20221128090907 48 218 4.0 12.0 0.00 0.36 0.05 99 1008.6
20221128090407 48 211 7.0 8.0 0.00 0.36 0.05 99 1008.6
20221128084908 48 211 8.0 10.0 0.00 0.37 0.05 99 1008.7
20221128084407 48 228 13.0 14.0 0.00 0.37 0.05 99 1008.7
20221128083408 48 202 10.0 10.0 0.00 0.37 0.05 99 1008.6
20221128082907 48 213 9.0 12.0 0.00 0.38 0.05 99 1008.6
20221128082408 48 207 11.0 12.0 0.00 0.38 0.05 99 1008.6
20221128081907 48 217 7.0 10.0 0.00 0.38 0.05 99 1008.7
20221128081407 48 211 12.0 14.0 0.00 0.38 0.05 99 1008.6
20221128080907 48 203 4.0 8.0 0.00 0.38 0.05 98 1008.5
20221128080407 48 198 7.0 8.0 0.00 0.38 0.05 98 1008.6
20221128075908 48 214 10.0 14.0 0.00 0.39 0.05 98 1008.5
20221128075408 47 208 5.0 14.0 0.00 0.39 0.05 98 1008.6
20221128074407 47 216 4.0 8.0 0.00 0.39 0.05 98 1008.4
20221128073908 47 226 10.0 10.0 0.00 0.39 0.05 98 1008.4
20221128073408 47 225 8.0 10.0 0.00 0.39 0.05 98 1008.4
20221128072408 47 214 3.0 8.0 0.00 0.39 0.05 98 1008.3
20221128071907 47 201 7.0 10.0 0.00 0.39 0.05 98 1008.2
20221128071407 47 207 6.0 12.0 0.00 0.39 0.05 98 1008.1
20221128070908 47 193 10.0 10.0 0.00 0.39 0.05 98 1008.1
20221128065907 47 218 9.0 10.0 0.00 0.39 0.05 98 1008.0
20221128065407 47 214 6.0 12.0 0.00 0.39 0.05 98 1008.0
20221128064907 47 226 11.0 12.0 0.00 0.39 0.05 98 1008.1
20221128064408 47 211 18.0 22.0 0.00 0.39 0.05 98 1008.1
20221128063907 47 220 13.0 14.0 0.00 0.39 0.05 98 1008.0
20221128063408 47 220 6.0 16.0 0.00 0.39 0.05 98 1008.1
20221128062907 47 215 3.0 10.0 0.00 0.39 0.05 98 1008.0
20221128062407 47 235 9.0 12.0 0.00 0.39 0.05 98 1008.0
20221128061907 47 192 5.0 10.0 0.00 0.40 0.05 98 1007.9
20221128061407 47 221 7.0 6.0 0.00 0.40 0.05 98 1007.9
20221128060908 47 225 8.0 10.0 0.00 0.40 0.05 98 1007.9
20221128060408 47 212 10.0 10.0 0.00 0.40 0.05 98 1007.9
20221128055907 47 220 10.0 12.0 0.00 0.40 0.05 98 1007.9
20221128055408 47 225 8.0 10.0 0.00 0.41 0.05 98 1007.9
20221128054908 47 214 5.0 8.0 0.00 0.41 0.05 98 1007.9
20221128054408 47 225 10.0 12.0 0.00 0.41 0.05 98 1007.8
20221128053907 46 206 10.0 10.0 0.00 0.41 0.05 98 1007.8
20221128053407 46 142 2.0 3.0 0.00 0.41 0.05 98 1007.8
20221128052907 46 204 3.0 12.0 0.00 0.41 0.05 98 1008.0
20221128052408 46 219 10.0 8.0 0.00 0.42 0.05 98 1008.0
20221128051908 46 211 9.0 14.0 0.00 0.42 0.05 98 1007.9
20221128051407 46 226 6.0 8.0 0.01 0.42 0.05 98 1007.9
20221128050908 46 219 9.0 14.0 0.01 0.42 0.05 98 1007.8
20221128045907 46 234 4.0 8.0 0.01 0.42 0.05 98 1007.8
20221128045408 46 199 7.0 8.0 0.01 0.42 0.05 98 1007.7
20221128044907 46 218 3.0 6.0 0.01 0.43 0.05 98 1007.6
20221128044407 46 217 3.0 6.0 0.01 0.43 0.05 98 1007.5
20221128043408 46 219 4.0 8.0 0.01 0.43 0.05 98 1007.6
20221128042408 46 198 8.0 10.0 0.01 0.43 0.05 98 1007.5
20221128041908 46 230 6.0 8.0 0.01 0.43 0.05 98 1007.6
20221128041408 46 212 5.0 8.0 0.00 0.42 0.04 98 1007.5
20221128040907 46 212 9.0 8.0 0.00 0.42 0.04 98 1007.5
20221128040408 46 215 6.0 8.0 0.00 0.42 0.04 98 1007.5
20221128035908 46 205 4.0 6.0 0.00 0.42 0.04 98 1007.4
20221128035408 46 202 7.0 8.0 0.01 0.42 0.04 98 1007.5
20221128034908 46 206 13.0 14.0 0.01 0.42 0.04 98 1007.5
20221128034408 46 216 7.0 10.0 0.01 0.42 0.04 98 1007.5
20221128033907 46 199 4.0 10.0 0.01 0.42 0.04 98 1007.5
20221128033408 46 211 5.0 8.0 0.01 0.42 0.04 98 1007.5
20221128032908 46 212 2.0 3.0 0.01 0.42 0.04 98 1007.6
20221128032408 46 210 6.0 8.0 0.01 0.42 0.04 98 1007.6
20221128031407 46 234 6.0 8.0 0.01 0.42 0.04 98 1007.5
20221128030908 46 206 6.0 10.0 0.01 0.42 0.04 98 1007.4
20221128030407 46 206 6.0 8.0 0.01 0.42 0.04 98 1007.3
20221128025908 46 217 12.0 12.0 0.01 0.42 0.04 98 1007.3
20221128025408 46 211 5.0 8.0 0.00 0.41 0.03 98 1007.4
20221128024907 46 216 9.0 16.0 0.00 0.41 0.03 98 1007.4
20221128024408 46 213 5.0 12.0 0.00 0.41 0.03 98 1007.4
20221128023907 46 212 4.0 10.0 0.00 0.41 0.03 98 1007.4
20221128023407 46 214 10.0 10.0 0.00 0.41 0.03 98 1007.4
20221128022907 46 211 5.0 12.0 0.00 0.41 0.03 98 1007.4
20221128022408 46 207 7.0 12.0 0.00 0.41 0.03 98 1007.4
20221128020908 46 207 12.0 14.0 0.01 0.41 0.03 98 1007.6
20221128020408 46 211 11.0 12.0 0.01 0.41 0.03 98 1007.5
20221128015908 46 231 7.0 16.0 0.01 0.41 0.03 98 1007.6
20221128015407 46 218 16.0 18.0 0.02 0.41 0.03 98 1007.5
20221128014908 46 200 13.0 18.0 0.02 0.41 0.03 98 1007.5
20221128013907 46 208 12.0 12.0 0.02 0.41 0.03 98 1007.5
20221128013408 47 222 14.0 12.0 0.02 0.41 0.03 98 1007.5
20221128012907 47 190 16.0 18.0 0.02 0.41 0.03 98 1007.6
20221128012408 47 205 14.0 16.0 0.02 0.41 0.03 98 1007.7
20221128011909 47 203 13.0 18.0 0.01 0.40 0.02 98 1007.6
20221128011407 47 200 16.0 28.0 0.01 0.40 0.02 98 1007.6
20221128010907 47 211 17.0 18.0 0.02 0.40 0.02 98 1007.7
20221128010408 47 215 15.0 16.0 0.02 0.40 0.02 98 1007.7
20221128005408 47 208 13.0 20.0 0.01 0.39 0.02 98 1007.9
20221128004908 47 195 9.0 18.0 0.01 0.39 0.02 98 1007.9
20221128003407 47 209 26.0 24.0 0.02 0.39 0.02 98 1007.8
20221128002907 47 219 17.0 18.0 0.02 0.39 0.02 98 1007.9
20221128002408 47 205 14.0 18.0 0.02 0.39 0.02 98 1007.8
20221128001907 47 214 20.0 20.0 0.02 0.39 0.02 98 1007.9
20221128001408 47 204 13.0 24.0 0.02 0.39 0.02 98 1007.9
20221128000907 47 221 8.0 12.0 0.01 0.39 0.01 98 1007.9
20221128000408 47 206 13.0 20.0 0.01 0.39 0.01 98 1007.9
20221127235908 47 210 7.0 12.0 0.01 0.39 0.01 98 1008.0
20221127235407 47 193 9.0 14.0 0.01 0.39 0.01 98 1007.9
20221127234407 47 226 7.0 10.0 0.01 0.39 0.01 98 1008.1
20221127233908 47 192 15.0 14.0 0.01 0.39 0.01 98 1008.1
20221127233407 47 157 7.0 14.0 0.01 0.38 0.00 98 1008.0
20221127232908 47 207 10.0 14.0 0.01 0.38 0.00 98 1008.0
20221127230908 47 220 9.0 18.0 0.01 0.38 0.00 98 1008.1
20221127225908 47 225 5.0 10.0 0.02 0.38 0.38 98 1008.1
20221127225407 47 228 6.0 10.0 0.02 0.38 0.38 98 1008.2
20221127224908 47 221 5.0 12.0 0.02 0.38 0.38 98 1008.2
20221127224407 47 192 3.0 16.0 0.02 0.38 0.38 98 1008.2
20221127223908 47 201 7.0 8.0 0.02 0.38 0.38 98 1008.2
20221127222907 46 203 10.0 20.0 0.02 0.37 0.37 98 1008.3
20221127222408 46 203 5.0 10.0 0.02 0.37 0.37 98 1008.3
20221127220907 46 172 5.0 10.0 0.02 0.37 0.37 98 1008.3
20221127220408 46 155 5.0 8.0 0.02 0.36 0.36 98 1008.4
20221127215907 46 216 9.0 12.0 0.02 0.36 0.36 98 1008.4
20221127215408 46 195 7.0 12.0 0.02 0.36 0.36 98 1008.5
20221127214907 46 204 6.0 8.0 0.02 0.36 0.36 98 1008.6
20221127213907 46 197 2.0 3.0 0.02 0.36 0.36 98 1008.7
20221127213407 46 194 5.0 12.0 0.02 0.35 0.35 98 1008.8
20221127212408 45 136 1.0 6.0 0.02 0.35 0.35 98 1009.0
20221127211908 45 132 0.0 2.0 0.02 0.35 0.35 98 1009.0
20221127211408 45 132 0.0 3.0 0.02 0.35 0.35 98 1009.2
20221127210908 45 171 9.0 18.0 0.03 0.35 0.35 98 1009.1
20221127210408 45 124 3.0 12.0 0.03 0.35 0.35 98 1009.2
20221127205908 45 127 4.0 10.0 0.03 0.35 0.35 97 1009.3
20221127205407 45 132 3.0 6.0 0.03 0.35 0.35 97 1009.4
20221127203907 45 165 2.0 6.0 0.04 0.34 0.34 97 1009.3
20221127203408 45 123 6.0 8.0 0.04 0.33 0.33 97 1009.5
20221127202908 45 125 5.0 12.0 0.05 0.33 0.33 97 1009.6
20221127202407 45 128 7.0 8.0 0.05 0.33 0.33 97 1009.6
20221127201908 45 131 3.0 8.0 0.06 0.33 0.33 97 1009.7
20221127201408 44 122 7.0 8.0 0.06 0.32 0.32 97 1009.8
20221127200908 44 120 4.0 8.0 0.06 0.31 0.31 97 1009.8
20221127200409 44 112 6.0 8.0 0.06 0.31 0.31 97 1009.9
20221127195908 44 133 2.0 6.0 0.06 0.31 0.31 97 1010.0
20221127195408 44 142 5.0 10.0 0.07 0.31 0.31 97 1010.1
20221127194908 44 97 8.0 10.0 0.07 0.31 0.31 97 1010.1
20221127194408 44 120 7.0 10.0 0.07 0.30 0.30 97 1010.1
20221127192907 44 121 10.0 14.0 0.07 0.28 0.28 96 1010.5
20221127192408 45 93 12.0 16.0 0.08 0.28 0.28 96 1010.6
20221127191407 45 121 12.0 12.0 0.07 0.27 0.27 96 1010.7
20221127190908 45 112 7.0 10.0 0.07 0.26 0.26 96 1010.7
20221127185907 45 128 3.0 14.0 0.07 0.25 0.25 96 1010.9
20221127184907 45 182 4.0 8.0 0.06 0.24 0.24 96 1011.1
20221127184407 45 190 2.0 14.0 0.06 0.23 0.23 96 1011.2
20221127183908 45 166 7.0 10.0 0.06 0.22 0.22 96 1011.3
20221127183407 45 155 2.0 8.0 0.07 0.22 0.22 96 1011.4
20221127182908 45 126 9.0 12.0 0.06 0.21 0.21 96 1011.6
20221127182407 45 198 0.0 12.0 0.06 0.20 0.20 96 1011.6
20221127181908 45 132 8.0 12.0 0.06 0.20 0.20 96 1011.6
20221127181407 45 126 4.0 8.0 0.07 0.20 0.20 96 1011.6
20221127180908 45 121 9.0 12.0 0.07 0.19 0.19 96 1011.7
20221127180408 45 92 8.0 12.0 0.08 0.19 0.19 96 1011.7
20221127175908 45 120 9.0 14.0 0.08 0.18 0.18 95 1011.7
20221127175408 45 134 5.0 6.0 0.08 0.17 0.17 95 1011.8
20221127174907 45 130 1.0 8.0 0.09 0.17 0.17 95 1011.9
20221127174407 45 149 1.0 3.0 0.09 0.17 0.17 95 1011.9
20221127173908 45 149 1.0 8.0 0.08 0.16 0.16 95 1012.0
20221127173408 45 115 3.0 3.0 0.07 0.15 0.15 95 1012.1
20221127172908 45 198 2.0 6.0 0.07 0.15 0.15 95 1012.2
20221127172407 45 146 2.0 18.0 0.06 0.14 0.14 94 1012.2
20221127171907 45 224 3.0 8.0 0.06 0.14 0.14 94 1012.3
20221127171408 45 184 0.0 3.0 0.05 0.13 0.13 94 1012.4
20221127170908 46 121 0.0 8.0 0.04 0.12 0.12 94 1012.4
20221127165907 46 104 1.0 8.0 0.02 0.10 0.10 93 1012.5
20221127165407 46 161 2.0 8.0 0.02 0.09 0.09 93 1012.5
20221127164908 46 189 1.0 12.0 0.01 0.09 0.09 93 1012.6
20221127164408 46 183 2.0 6.0 0.00 0.08 0.08 92 1012.6
20221127163908 46 143 3.0 10.0 0.00 0.08 0.08 92 1012.7
20221127163407 46 199 2.0 3.0 0.00 0.08 0.08 92 1012.7
20221127162908 46 213 0.0 0.0 0.00 0.08 0.08 92 1012.8
20221127162408 46 150 0.0 8.0 0.00 0.08 0.08 91 1012.8
20221127161907 46 127 3.0 8.0 0.00 0.08 0.08 91 1012.8
20221127161407 46 136 9.0 14.0 0.00 0.08 0.08 91 1012.8
20221127160407 46 195 5.0 10.0 0.00 0.08 0.08 91 1012.9
20221127155907 46 173 8.0 12.0 0.00 0.08 0.08 91 1012.9
20221127155407 46 138 10.0 16.0 0.00 0.08 0.08 91 1013.1
20221127153908 46 127 6.0 14.0 0.00 0.08 0.08 91 1013.1